Time;durP1;ratioP1;P1;durP2;ratioP2;P2;SDS_P1;SDS_P2;PMS_P1;PMS_P2;Temp;Humidity;BMP_temperature;BMP_pressure;BME280_temperature;BME280_humidity;BME280_pressure;Samples;Min_cycle;Max_cycle;Signal;HPM_P1;HPM_P2
2020/12/12 00:01:41;;;;;;;0.30;0.30;;;4.60;99.90;;;;;;5051423;28;20217;-69
2020/12/12 00:04:06;;;;;;;0.30;0.30;;;4.50;99.90;;;;;;5056322;28;20403;-71
2020/12/12 00:06:32;;;;;;;0.40;0.40;;;4.50;99.90;;;;;;5038770;28;20420;-69
2020/12/12 00:08:57;;;;;;;0.40;0.40;;;4.50;99.90;;;;;;5036410;28;20193;-68
2020/12/12 00:11:23;;;;;;;0.43;0.43;;;4.50;99.90;;;;;;5050523;28;20679;-70
2020/12/12 00:13:49;;;;;;;0.30;0.30;;;4.60;99.90;;;;;;5055959;28;20189;-68
2020/12/12 00:16:15;;;;;;;2.30;1.60;;;4.50;99.90;;;;;;5041392;28;20256;-69
2020/12/12 00:18:41;;;;;;;0.30;0.30;;;4.60;99.90;;;;;;5036182;28;20400;-69
2020/12/12 00:21:07;;;;;;;0.30;0.30;;;4.60;99.90;;;;;;5035837;28;20695;-69
2020/12/12 00:23:33;;;;;;;0.30;0.30;;;4.60;99.90;;;;;;5035829;28;20446;-70
2020/12/12 00:25:58;;;;;;;0.30;0.30;;;4.50;99.90;;;;;;5046472;28;20227;-67
2020/12/12 00:28:24;;;;;;;0.30;0.30;;;4.50;99.90;;;;;;5055982;28;20162;-68
2020/12/12 00:30:50;;;;;;;0.30;0.30;;;4.50;99.90;;;;;;5045923;28;20185;-70
2020/12/12 00:33:15;;;;;;;0.40;0.40;;;4.40;99.90;;;;;;5035812;28;20533;-68
2020/12/12 00:35:41;;;;;;;0.53;0.53;;;4.40;99.90;;;;;;5037300;28;20529;-69
2020/12/12 00:38:07;;;;;;;0.30;0.30;;;4.40;99.90;;;;;;5035653;28;20189;-68
2020/12/12 00:40:32;;;;;;;0.30;0.30;;;4.40;99.90;;;;;;5036246;28;20177;-69
2020/12/12 00:42:58;;;;;;;0.40;0.40;;;4.40;99.90;;;;;;5035449;28;20218;-67
2020/12/12 00:45:23;;;;;;;0.30;0.30;;;4.40;99.90;;;;;;5036405;28;20182;-69
2020/12/12 00:47:49;;;;;;;0.30;0.30;;;4.30;99.90;;;;;;5035506;28;20178;-67
2020/12/12 00:50:15;;;;;;;0.53;0.53;;;4.30;99.90;;;;;;5037978;28;20178;-68
2020/12/12 00:52:41;;;;;;;0.30;0.30;;;4.40;99.90;;;;;;5035035;28;20233;-68
2020/12/12 00:55:07;;;;;;;0.40;0.40;;;4.30;99.90;;;;;;5037941;28;20180;-67
2020/12/12 00:57:32;;;;;;;0.40;0.40;;;4.40;99.90;;;;;;5055267;28;20169;-68
2020/12/12 00:59:58;;;;;;;0.30;0.30;;;4.40;99.90;;;;;;5051919;28;20524;-68
2020/12/12 01:02:23;;;;;;;0.30;0.30;;;4.30;99.90;;;;;;5035158;28;20197;-68
2020/12/12 01:04:49;;;;;;;0.30;0.30;;;4.30;99.90;;;;;;5044038;28;20186;-69
2020/12/12 01:07:15;;;;;;;0.50;0.50;;;4.30;99.90;;;;;;5035034;28;20174;-68
2020/12/12 01:09:40;;;;;;;0.40;0.40;;;4.40;99.90;;;;;;5049326;28;20181;-68
2020/12/12 01:12:06;;;;;;;0.37;0.37;;;4.40;99.90;;;;;;5035938;28;20722;-68
2020/12/12 01:14:32;;;;;;;0.60;0.60;;;4.40;99.90;;;;;;5047714;28;20248;-69
2020/12/12 01:17:00;;;;;;;1.17;1.17;;;4.40;99.90;;;;;;5054896;28;20170;-66
2020/12/12 01:19:26;;;;;;;0.30;0.30;;;4.40;99.90;;;;;;5048471;28;20200;-68
2020/12/12 01:21:55;;;;;;;0.30;0.30;;;4.40;99.90;;;;;;5054239;28;20236;-70
2020/12/12 01:24:20;;;;;;;0.40;0.40;;;4.40;99.90;;;;;;5043796;28;20209;-67
2020/12/12 01:26:47;;;;;;;0.30;0.30;;;4.40;99.90;;;;;;5034950;28;20181;-71
2020/12/12 01:29:13;;;;;;;0.35;0.35;;;4.40;99.90;;;;;;5035593;28;21003;-69
2020/12/12 01:31:39;;;;;;;0.30;0.30;;;4.50;99.90;;;;;;5034348;28;20233;-69
2020/12/12 01:34:05;;;;;;;0.40;0.40;;;4.50;99.90;;;;;;5040806;28;20228;-68
2020/12/12 01:36:31;;;;;;;0.30;0.30;;;4.40;99.90;;;;;;5054457;28;20572;-70
2020/12/12 01:38:56;;;;;;;0.40;0.40;;;4.40;99.90;;;;;;5047373;28;20507;-68
2020/12/12 01:41:22;;;;;;;0.30;0.30;;;4.40;99.90;;;;;;5046500;28;20435;-68
2020/12/12 01:43:54;;;;;;;0.30;0.30;;;4.40;99.90;;;;;;5053976;28;20182;-70
2020/12/12 01:46:25;;;;;;;0.30;0.30;;;4.40;99.90;;;;;;5054313;28;20176;-68
2020/12/12 01:48:52;;;;;;;0.50;0.50;;;4.40;99.90;;;;;;5053099;28;20173;-68
2020/12/12 01:51:26;;;;;;;0.70;0.70;;;4.40;99.90;;;;;;5053640;28;20262;-71
2020/12/12 01:53:54;;;;;;;0.30;0.30;;;4.40;99.90;;;;;;5049054;28;20297;-68
2020/12/12 01:56:20;;;;;;;0.30;0.30;;;4.40;99.90;;;;;;5034073;28;20185;-68
2020/12/12 01:58:46;;;;;;;0.30;0.30;;;4.40;99.90;;;;;;5038057;28;20173;-67
2020/12/12 02:01:15;;;;;;;0.40;0.40;;;4.40;99.90;;;;;;5052587;28;20189;-72
2020/12/12 02:03:44;;;;;;;0.77;0.77;;;4.40;99.90;;;;;;5045932;28;20174;-69
2020/12/12 02:06:14;;;;;;;0.30;0.30;;;4.40;99.90;;;;;;5032504;28;20189;-69
2020/12/12 02:08:40;;;;;;;0.47;0.47;;;4.40;99.90;;;;;;5038933;28;20178;-69
2020/12/12 02:11:10;;;;;;;0.30;0.30;;;4.40;99.90;;;;;;5053260;28;20169;-71
2020/12/12 02:13:36;;;;;;;0.88;0.88;;;4.50;99.90;;;;;;5049363;28;20607;-69
2020/12/12 02:16:02;;;;;;;0.30;0.30;;;4.40;99.90;;;;;;5034830;28;20173;-67
2020/12/12 02:18:27;;;;;;;0.70;0.70;;;4.40;99.90;;;;;;5035353;28;20450;-68
2020/12/12 02:20:55;;;;;;;0.30;0.30;;;4.40;99.90;;;;;;5033304;28;20714;-68
2020/12/12 02:23:21;;;;;;;0.40;0.40;;;4.40;99.90;;;;;;5035401;28;20181;-69
2020/12/12 02:25:50;;;;;;;0.30;0.30;;;4.40;99.90;;;;;;5053554;28;20184;-67
2020/12/12 02:28:23;;;;;;;0.98;0.98;;;4.30;99.90;;;;;;5053139;28;20173;-67
2020/12/12 02:30:49;;;;;;;0.40;0.40;;;4.30;99.90;;;;;;5013401;28;20175;-68
2020/12/12 02:33:15;;;;;;;0.30;0.30;;;4.30;99.90;;;;;;5026894;28;20215;-67
2020/12/12 02:35:40;;;;;;;0.30;0.30;;;4.20;99.90;;;;;;5052938;28;20416;-67
2020/12/12 02:38:06;;;;;;;0.37;0.37;;;4.20;99.90;;;;;;5051356;28;20182;-67
2020/12/12 02:40:32;;;;;;;0.50;0.50;;;4.20;99.90;;;;;;5033381;28;20255;-65
2020/12/12 02:42:57;;;;;;;0.30;0.30;;;4.20;99.90;;;;;;5032986;28;20206;-69
2020/12/12 02:45:23;;;;;;;0.40;0.40;;;4.10;99.90;;;;;;5033109;28;20265;-68
2020/12/12 02:47:49;;;;;;;0.40;0.40;;;4.10;99.90;;;;;;5033372;28;20175;-69
2020/12/12 02:50:24;;;;;;;0.40;0.40;;;4.10;99.90;;;;;;5050800;28;20177;-68
2020/12/12 02:52:50;;;;;;;0.40;0.40;;;4.10;99.90;;;;;;5053102;28;20239;-68
2020/12/12 02:55:16;;;;;;;0.30;0.30;;;4.10;99.90;;;;;;5034370;28;20541;-69
2020/12/12 02:57:41;;;;;;;0.40;0.40;;;4.00;99.90;;;;;;5033179;28;20170;-66
2020/12/12 03:00:10;;;;;;;0.40;0.40;;;4.00;99.90;;;;;;5034782;28;20178;-66
2020/12/12 03:02:36;;;;;;;0.52;0.52;;;4.00;99.90;;;;;;5033276;28;20205;-67
2020/12/12 03:05:03;;;;;;;0.67;0.67;;;3.90;99.90;;;;;;5048988;28;20177;-67
2020/12/12 03:07:29;;;;;;;1.38;1.38;;;4.00;99.90;;;;;;5052846;28;20408;-67
2020/12/12 03:09:54;;;;;;;0.40;0.40;;;3.90;99.90;;;;;;5037217;28;20180;-67
2020/12/12 03:12:20;;;;;;;0.30;0.30;;;3.90;99.90;;;;;;5034519;28;20280;-67
2020/12/12 03:14:46;;;;;;;0.40;0.40;;;3.90;99.90;;;;;;5040803;28;20288;-68
2020/12/12 03:17:11;;;;;;;0.30;0.30;;;3.90;99.90;;;;;;5037006;28;20171;-67
2020/12/12 03:19:37;;;;;;;0.40;0.40;;;3.90;99.90;;;;;;5049100;28;20177;-68
2020/12/12 03:22:04;;;;;;;0.35;0.35;;;3.90;99.90;;;;;;5056724;28;20193;-69
2020/12/12 03:24:30;;;;;;;0.30;0.30;;;3.90;99.90;;;;;;5045649;28;20174;-68
2020/12/12 03:26:56;;;;;;;0.30;0.30;;;3.90;99.90;;;;;;5036768;28;20224;-68
2020/12/12 03:29:21;;;;;;;0.30;0.30;;;3.90;99.90;;;;;;5044442;28;20637;-68
2020/12/12 03:31:47;;;;;;;0.30;0.30;;;3.90;99.90;;;;;;5051601;28;20225;-69
2020/12/12 03:34:12;;;;;;;0.30;0.30;;;4.00;99.90;;;;;;5048825;28;20281;-68
2020/12/12 03:36:38;;;;;;;0.87;0.87;;;4.00;99.90;;;;;;5036693;28;20704;-68
2020/12/12 03:39:04;;;;;;;0.80;0.80;;;4.00;99.90;;;;;;5037783;28;20228;-68
2020/12/12 03:41:30;;;;;;;0.30;0.30;;;4.10;99.90;;;;;;5036245;28;20198;-70
2020/12/12 03:43:55;;;;;;;0.30;0.30;;;4.00;99.90;;;;;;5047998;28;21181;-68
2020/12/12 03:46:21;;;;;;;0.30;0.30;;;4.00;99.90;;;;;;5056610;28;20607;-68
2020/12/12 03:48:47;;;;;;;0.30;0.30;;;4.00;99.90;;;;;;5054241;28;20537;-68
2020/12/12 03:51:12;;;;;;;0.40;0.40;;;4.00;99.90;;;;;;5036052;28;20201;-69
2020/12/12 03:53:38;;;;;;;0.30;0.30;;;4.10;99.90;;;;;;5036351;28;20750;-68
2020/12/12 03:56:04;;;;;;;0.30;0.30;;;4.00;99.90;;;;;;5056347;28;20174;-68
2020/12/12 03:58:29;;;;;;;0.30;0.30;;;4.00;99.90;;;;;;5055479;28;20169;-67
2020/12/12 04:00:55;;;;;;;0.40;0.40;;;4.10;99.90;;;;;;5036093;28;20174;-67
2020/12/12 04:03:21;;;;;;;2.37;2.20;;;4.10;99.90;;;;;;5036247;28;20174;-67
2020/12/12 04:05:46;;;;;;;0.30;0.30;;;4.10;99.90;;;;;;5054056;28;20264;-69
2020/12/12 04:08:13;;;;;;;0.30;0.30;;;4.10;99.90;;;;;;5056237;28;20446;-69
2020/12/12 04:10:38;;;;;;;0.30;0.30;;;4.10;99.90;;;;;;5038450;28;20637;-68
2020/12/12 04:13:04;;;;;;;0.50;0.50;;;4.20;99.90;;;;;;5048130;28;20283;-70
2020/12/12 04:15:30;;;;;;;0.40;0.40;;;4.20;99.90;;;;;;5040713;28;20285;-69
2020/12/12 04:17:55;;;;;;;0.40;0.40;;;4.20;99.90;;;;;;5035999;28;20166;-70
2020/12/12 04:20:21;;;;;;;0.40;0.40;;;4.20;99.90;;;;;;5044402;28;20404;-68
2020/12/12 04:22:47;;;;;;;1.33;1.33;;;4.30;99.90;;;;;;5055847;28;20185;-69
2020/12/12 04:25:12;;;;;;;0.30;0.30;;;4.30;99.90;;;;;;5042688;28;20416;-68
2020/12/12 04:27:38;;;;;;;0.30;0.30;;;4.30;99.90;;;;;;5035830;28;20177;-68
2020/12/12 04:30:05;;;;;;;0.40;0.40;;;4.30;99.90;;;;;;5035578;28;20178;-70
2020/12/12 04:32:31;;;;;;;0.30;0.30;;;4.30;99.90;;;;;;5035672;28;20236;-69
2020/12/12 04:34:57;;;;;;;0.40;0.40;;;4.30;99.90;;;;;;5042074;28;20205;-68
2020/12/12 04:37:22;;;;;;;0.30;0.30;;;4.30;99.90;;;;;;5035515;28;20633;-69
2020/12/12 04:39:48;;;;;;;0.97;0.97;;;4.40;99.90;;;;;;5055160;28;20207;-68
2020/12/12 04:42:15;;;;;;;0.40;0.40;;;4.40;99.90;;;;;;5055750;28;20231;-67
2020/12/12 04:44:42;;;;;;;0.30;0.30;;;4.40;99.90;;;;;;5036459;28;20224;-69
2020/12/12 04:47:09;;;;;;;0.80;0.80;;;4.40;99.90;;;;;;5035623;28;20182;-68
2020/12/12 04:49:35;;;;;;;0.30;0.30;;;4.40;99.90;;;;;;5051049;28;20563;-67
2020/12/12 04:52:04;;;;;;;0.40;0.40;;;4.40;99.90;;;;;;5054719;28;20189;-69
2020/12/12 04:54:33;;;;;;;0.40;0.40;;;4.40;99.90;;;;;;5038157;28;20208;-68
2020/12/12 04:57:02;;;;;;;0.40;0.40;;;4.40;99.90;;;;;;5035260;28;20577;-69
2020/12/12 04:59:30;;;;;;;0.30;0.30;;;4.40;99.90;;;;;;5051868;28;20173;-68
2020/12/12 05:02:01;;;;;;;0.40;0.40;;;4.40;99.90;;;;;;5054603;28;20181;-70
2020/12/12 05:04:27;;;;;;;0.60;0.60;;;4.40;99.90;;;;;;5053847;28;20193;-69
2020/12/12 05:06:52;;;;;;;0.40;0.40;;;4.40;99.90;;;;;;5055310;28;20173;-69
2020/12/12 05:09:19;;;;;;;0.30;0.30;;;4.40;99.90;;;;;;5040171;28;20281;-69
2020/12/12 05:11:46;;;;;;;0.30;0.30;;;4.50;99.90;;;;;;5034427;28;20209;-69
2020/12/12 05:14:15;;;;;;;0.30;0.30;;;4.50;99.90;;;;;;5047566;28;20213;-66
2020/12/12 05:16:43;;;;;;;0.55;0.55;;;4.50;99.90;;;;;;5054866;28;20240;-69
2020/12/12 05:19:09;;;;;;;0.40;0.40;;;4.50;99.90;;;;;;5039027;28;20228;-68
2020/12/12 05:21:44;;;;;;;0.33;0.33;;;4.50;99.90;;;;;;5034219;28;20221;-69
2020/12/12 05:24:10;;;;;;;0.30;0.30;;;4.50;99.90;;;;;;5048794;28;20212;-69
2020/12/12 05:26:37;;;;;;;0.47;0.47;;;4.50;99.90;;;;;;5053352;28;20182;-68
2020/12/12 05:29:04;;;;;;;0.30;0.30;;;4.50;99.90;;;;;;5041934;28;20174;-68
2020/12/12 05:31:30;;;;;;;0.30;0.30;;;4.60;99.90;;;;;;5034078;28;20197;-69
2020/12/12 05:33:56;;;;;;;0.30;0.30;;;4.60;99.90;;;;;;5046026;28;20318;-69
2020/12/12 05:36:27;;;;;;;0.33;0.33;;;4.60;99.90;;;;;;5054274;28;20195;-69
2020/12/12 05:38:59;;;;;;;0.95;0.95;;;4.60;99.90;;;;;;5043042;28;20170;-67
2020/12/12 05:41:27;;;;;;;0.30;0.30;;;4.70;99.90;;;;;;5034053;28;20183;-69
2020/12/12 05:43:53;;;;;;;0.43;0.43;;;4.70;99.90;;;;;;5045074;28;20197;-69
2020/12/12 05:46:25;;;;;;;0.30;0.30;;;4.70;99.90;;;;;;5054390;28;20176;-70
2020/12/12 05:48:51;;;;;;;0.30;0.30;;;4.70;99.90;;;;;;5043648;28;20190;-68
2020/12/12 05:51:17;;;;;;;0.40;0.40;;;4.70;99.90;;;;;;5034698;28;20198;-68
2020/12/12 05:53:45;;;;;;;0.30;0.30;;;4.70;99.90;;;;;;5039706;28;20204;-67
2020/12/12 05:56:12;;;;;;;0.50;0.50;;;4.70;99.90;;;;;;5034280;28;20177;-68
2020/12/12 05:58:45;;;;;;;0.60;0.60;;;4.70;99.90;;;;;;5042278;28;20170;-68
2020/12/12 06:01:17;;;;;;;0.30;0.30;;;4.70;99.90;;;;;;5053452;28;20231;-70
2020/12/12 06:03:57;;;;;;;0.30;0.30;;;4.70;99.90;;;;;;5052179;28;20200;-69
2020/12/12 06:06:25;;;;;;;0.30;0.30;;;4.70;99.90;;;;;;5053610;28;20181;-68
2020/12/12 06:09:08;;;;;;;0.30;0.30;;;4.60;99.90;;;;;;5041365;28;20182;-68
2020/12/12 06:11:39;;;;;;;0.75;0.75;;;4.60;99.90;;;;;;5033430;28;20182;-69
2020/12/12 06:14:05;;;;;;;1.05;1.05;;;4.60;99.90;;;;;;5039091;28;20201;-67
2020/12/12 06:16:32;;;;;;;0.30;0.30;;;4.70;99.90;;;;;;5033782;28;20162;-69
2020/12/12 06:19:17;;;;;;;0.30;0.30;;;4.70;99.90;;;;;;5046219;28;20506;-69
2020/12/12 06:21:47;;;;;;;0.30;0.30;;;4.70;99.90;;;;;;5053068;28;20186;-69
2020/12/12 06:24:19;;;;;;;0.30;0.30;;;4.70;99.90;;;;;;5038256;28;20178;-72
2020/12/12 06:27:06;;;;;;;0.30;0.30;;;4.70;99.90;;;;;;5032320;28;20303;-68
2020/12/12 06:29:42;;;;;;;0.30;0.30;;;4.80;99.90;;;;;;5034833;28;20308;-68
2020/12/12 06:32:15;;;;;;;0.30;0.30;;;4.80;99.90;;;;;;5033482;28;20194;-69
2020/12/12 06:34:45;;;;;;;0.30;0.30;;;4.90;99.90;;;;;;5051015;28;20197;-70
2020/12/12 06:37:30;;;;;;;0.30;0.30;;;4.90;99.90;;;;;;5046522;28;20185;-69
2020/12/12 06:39:58;;;;;;;0.82;0.82;;;4.90;99.90;;;;;;5033165;28;20175;-69
2020/12/12 06:42:32;;;;;;;0.30;0.30;;;4.90;99.90;;;;;;5039421;28;20193;-70
2020/12/12 06:44:59;;;;;;;0.30;0.30;;;4.90;99.90;;;;;;5052513;28;20181;-71
2020/12/12 06:47:41;;;;;;;0.50;0.50;;;4.90;99.90;;;;;;5044629;28;20178;-70
2020/12/12 06:50:10;;;;;;;0.77;0.77;;;4.90;99.90;;;;;;5032638;28;20655;-69
2020/12/12 06:52:36;;;;;;;0.40;0.40;;;4.90;99.90;;;;;;5033215;28;20293;-68
2020/12/12 06:55:05;;;;;;;0.30;0.30;;;4.90;99.90;;;;;;5033328;28;20224;-69
2020/12/12 06:57:37;;;;;;;0.45;0.45;;;4.90;99.90;;;;;;5040859;28;20226;-69
2020/12/12 07:00:05;;;;;;;0.73;0.73;;;4.90;99.90;;;;;;5052860;28;20169;-71
2020/12/12 07:02:31;;;;;;;0.52;0.52;;;4.90;99.90;;;;;;5044356;28;20205;-68
2020/12/12 07:05:17;;;;;;;0.40;0.40;;;5.00;99.90;;;;;;5050904;28;20544;-69
2020/12/12 07:07:43;;;;;;;0.30;0.30;;;5.00;99.90;;;;;;5037823;28;20209;-68
2020/12/12 07:10:10;;;;;;;1.25;1.25;;;5.00;99.90;;;;;;5032717;28;20170;-65
2020/12/12 07:12:37;;;;;;;0.30;0.30;;;5.00;99.90;;;;;;5046036;28;20552;-66
2020/12/12 07:15:04;;;;;;;0.40;0.40;;;5.00;99.90;;;;;;5053134;28;20715;-66
2020/12/12 07:17:31;;;;;;;0.30;0.30;;;5.10;99.90;;;;;;5040566;28;20174;-67
2020/12/12 07:19:57;;;;;;;1.75;1.48;;;5.10;99.90;;;;;;5051516;28;20175;-66
2020/12/12 07:22:23;;;;;;;0.35;0.35;;;5.10;99.90;;;;;;5040581;28;20205;-67
2020/12/12 07:24:49;;;;;;;0.30;0.30;;;5.20;99.90;;;;;;5033222;28;20174;-66
2020/12/12 07:27:15;;;;;;;0.30;0.30;;;5.10;99.90;;;;;;5042320;28;20667;-66
2020/12/12 07:29:40;;;;;;;0.30;0.30;;;5.10;99.90;;;;;;5052413;28;20166;-65
2020/12/12 07:32:07;;;;;;;0.30;0.30;;;5.10;99.90;;;;;;5043874;28;20304;-68
2020/12/12 07:34:32;;;;;;;0.85;0.85;;;5.20;99.90;;;;;;5051377;28;20197;-67
2020/12/12 07:37:07;;;;;;;0.90;0.90;;;5.20;99.90;;;;;;5045763;28;20517;-65
2020/12/12 07:39:37;;;;;;;0.32;0.32;;;5.20;99.90;;;;;;5031817;28;20192;-64
2020/12/12 07:42:05;;;;;;;0.40;0.40;;;5.20;99.90;;;;;;5040254;28;20228;-64
2020/12/12 07:44:32;;;;;;;0.40;0.40;;;5.20;99.90;;;;;;5052704;28;20165;-65
2020/12/12 07:47:04;;;;;;;0.30;0.30;;;5.30;99.90;;;;;;5045536;28;20536;-65
2020/12/12 07:49:35;;;;;;;0.30;0.30;;;5.30;99.90;;;;;;5037808;28;20272;-69
2020/12/12 07:52:09;;;;;;;0.30;0.30;;;5.40;99.90;;;;;;5043849;28;20620;-66
2020/12/12 07:54:51;;;;;;;0.30;0.30;;;5.40;99.90;;;;;;5032847;28;20551;-69
2020/12/12 07:57:17;;;;;;;0.40;0.40;;;5.50;99.90;;;;;;5032978;28;20253;-64
2020/12/12 07:59:43;;;;;;;0.33;0.33;;;5.50;99.90;;;;;;5034323;28;20258;-70
2020/12/12 08:02:12;;;;;;;0.30;0.30;;;5.50;99.90;;;;;;5040745;28;20209;-68
2020/12/12 08:04:38;;;;;;;0.30;0.30;;;5.50;99.90;;;;;;5037466;28;20175;-67
2020/12/12 08:07:11;;;;;;;0.30;0.30;;;5.50;99.90;;;;;;5036189;28;20175;-65
2020/12/12 08:09:37;;;;;;;0.30;0.30;;;5.60;99.90;;;;;;5044390;28;20174;-66
2020/12/12 08:12:03;;;;;;;0.77;0.77;;;5.60;99.90;;;;;;5036252;28;20603;-67
2020/12/12 08:14:31;;;;;;;0.30;0.20;;;5.60;99.90;;;;;;5038355;28;20205;-66
2020/12/12 08:16:59;;;;;;;0.40;0.40;;;5.60;99.90;;;;;;5036438;28;20182;-64
2020/12/12 08:19:26;;;;;;;0.30;0.30;;;5.70;99.90;;;;;;5037700;28;20198;-67
2020/12/12 08:22:11;;;;;;;0.30;0.30;;;5.70;99.90;;;;;;5055339;28;20197;-67
2020/12/12 08:24:36;;;;;;;0.52;0.52;;;5.70;99.90;;;;;;5043397;28;20595;-66
2020/12/12 08:27:12;;;;;;;0.30;0.30;;;5.70;99.90;;;;;;5036768;28;20178;-65
2020/12/12 08:29:44;;;;;;;0.30;0.30;;;5.80;99.90;;;;;;5035579;28;20270;-65
2020/12/12 08:32:48;;;;;;;0.30;0.30;;;5.90;99.90;;;;;;5035665;28;20718;-63
2020/12/12 08:35:24;;;;;;;0.30;0.30;;;5.90;99.90;;;;;;5052976;28;20248;-69
2020/12/12 08:38:05;;;;;;;0.38;0.38;;;6.00;99.90;;;;;;5055899;28;20157;-66
2020/12/12 08:40:42;;;;;;;0.52;0.52;;;6.00;99.90;;;;;;5035208;28;20518;-69
2020/12/12 08:43:11;;;;;;;0.40;0.30;;;6.00;99.90;;;;;;5055084;28;20400;-69
2020/12/12 08:45:39;;;;;;;0.30;0.30;;;6.10;99.90;;;;;;5045132;28;20185;-65
2020/12/12 08:48:06;;;;;;;0.30;0.30;;;6.10;99.90;;;;;;5035736;28;20171;-67
2020/12/12 08:50:50;;;;;;;0.40;0.40;;;6.20;99.90;;;;;;5044651;28;20529;-65
2020/12/12 08:53:44;;;;;;;0.30;0.30;;;6.30;99.90;;;;;;5023655;28;20614;-64
2020/12/12 08:56:21;;;;;;;0.30;0.30;;;6.30;99.90;;;;;;5040582;28;20203;-64
2020/12/12 08:58:55;;;;;;;1.50;1.10;;;6.40;99.90;;;;;;5036460;28;20176;-71
2020/12/12 09:01:22;;;;;;;0.30;0.30;;;6.30;99.90;;;;;;5035017;28;20194;-73
2020/12/12 09:04:03;;;;;;;0.40;0.40;;;6.40;99.90;;;;;;5047247;28;20182;-72
2020/12/12 09:06:41;;;;;;;0.38;0.38;;;6.50;99.90;;;;;;5054033;28;20178;-73
2020/12/12 09:09:19;;;;;;;0.30;0.30;;;6.50;99.90;;;;;;5051922;28;20181;-70
2020/12/12 09:11:47;;;;;;;0.30;0.30;;;6.60;99.90;;;;;;5054542;28;20189;-68
2020/12/12 09:14:14;;;;;;;0.30;0.30;;;6.60;99.90;;;;;;5055149;28;20194;-70
2020/12/12 09:16:48;;;;;;;0.30;0.30;;;6.60;99.90;;;;;;5053865;28;20165;-69
2020/12/12 09:19:14;;;;;;;0.50;0.50;;;6.60;99.90;;;;;;5053984;28;20177;-70
2020/12/12 09:21:39;;;;;;;0.30;0.30;;;6.60;99.90;;;;;;5053580;28;20185;-70
2020/12/12 09:24:08;;;;;;;0.40;0.40;;;6.60;99.90;;;;;;5038641;28;20216;-72
2020/12/12 09:26:34;;;;;;;0.60;0.60;;;6.60;99.90;;;;;;5034262;28;20167;-70
2020/12/12 09:29:00;;;;;;;0.50;0.50;;;6.70;99.90;;;;;;5034297;28;20636;-70
2020/12/12 09:31:26;;;;;;;0.30;0.30;;;6.80;99.90;;;;;;5033905;28;20284;-70
2020/12/12 09:33:52;;;;;;;1.30;1.25;;;6.70;99.90;;;;;;5034792;28;20285;-70
2020/12/12 09:36:17;;;;;;;0.30;0.30;;;6.70;99.90;;;;;;5034611;28;20244;-69
2020/12/12 09:38:44;;;;;;;0.30;0.30;;;6.80;99.90;;;;;;5034695;28;20166;-69
2020/12/12 09:41:13;;;;;;;0.30;0.30;;;6.90;99.90;;;;;;5034065;28;20213;-70
2020/12/12 09:43:39;;;;;;;0.30;0.30;;;6.80;99.90;;;;;;5034625;28;20245;-68
2020/12/12 09:46:06;;;;;;;0.30;0.20;;;6.80;99.90;;;;;;5052298;28;20179;-71
2020/12/12 09:48:32;;;;;;;0.30;0.30;;;6.90;99.90;;;;;;5054360;28;20178;-71
2020/12/12 09:50:57;;;;;;;0.30;0.30;;;6.90;99.90;;;;;;5054113;28;20172;-72
2020/12/12 09:53:23;;;;;;;0.30;0.30;;;6.90;99.90;;;;;;5054094;28;20457;-70
2020/12/12 09:55:51;;;;;;;0.40;0.40;;;7.00;99.90;;;;;;5054369;28;20249;-70
2020/12/12 09:58:17;;;;;;;0.30;0.30;;;7.00;99.90;;;;;;5054177;28;20423;-69
2020/12/12 10:00:43;;;;;;;0.30;0.30;;;7.10;99.90;;;;;;5053423;28;20179;-70
2020/12/12 10:03:09;;;;;;;0.30;0.30;;;7.10;99.90;;;;;;5053964;28;20697;-69
2020/12/12 10:05:35;;;;;;;0.40;0.40;;;7.20;99.90;;;;;;5054209;28;20187;-69
2020/12/12 10:08:03;;;;;;;0.30;0.30;;;7.20;99.90;;;;;;5050262;28;20178;-69
2020/12/12 10:10:30;;;;;;;0.30;0.30;;;7.20;99.90;;;;;;5033715;28;20166;-69
2020/12/12 10:12:57;;;;;;;0.30;0.30;;;7.30;99.90;;;;;;5033698;28;20216;-69
2020/12/12 10:15:23;;;;;;;0.30;0.30;;;7.30;99.90;;;;;;5033833;28;20570;-69
2020/12/12 10:17:50;;;;;;;0.30;0.30;;;7.30;99.90;;;;;;5033777;28;20181;-69
2020/12/12 10:20:16;;;;;;;1.40;1.30;;;7.30;99.90;;;;;;5033280;28;20534;-70
2020/12/12 10:22:42;;;;;;;1.98;1.77;;;7.40;99.90;;;;;;5032970;28;20194;-70
2020/12/12 10:25:08;;;;;;;0.30;0.30;;;7.40;99.90;;;;;;5033732;28;20708;-69
2020/12/12 10:27:35;;;;;;;0.57;0.57;;;7.40;99.90;;;;;;5033594;28;20204;-70
2020/12/12 10:30:01;;;;;;;0.30;0.30;;;7.40;99.90;;;;;;5033111;28;20408;-69
2020/12/12 10:32:26;;;;;;;0.30;0.30;;;7.50;99.90;;;;;;5033436;28;20182;-69
2020/12/12 10:34:52;;;;;;;0.30;0.20;;;7.50;99.90;;;;;;5033855;28;20493;-69
2020/12/12 10:37:18;;;;;;;0.40;0.40;;;7.50;99.90;;;;;;5033903;28;20166;-68
2020/12/12 10:39:52;;;;;;;0.30;0.30;;;7.60;99.90;;;;;;5033302;28;20428;-69
2020/12/12 10:42:18;;;;;;;0.30;0.30;;;7.50;99.90;;;;;;5033438;28;20191;-69
2020/12/12 10:44:44;;;;;;;0.30;0.30;;;7.60;99.90;;;;;;5033641;28;20263;-68
2020/12/12 10:47:09;;;;;;;2.10;2.00;;;7.50;99.90;;;;;;5033710;28;20173;-69
2020/12/12 10:49:35;;;;;;;0.30;0.30;;;7.60;99.90;;;;;;5047877;28;20173;-70
2020/12/12 10:52:02;;;;;;;0.93;0.83;;;7.60;99.90;;;;;;5052931;28;20663;-69
2020/12/12 10:54:28;;;;;;;0.30;0.30;;;7.60;99.90;;;;;;5042095;28;20291;-69
2020/12/12 10:56:54;;;;;;;0.30;0.30;;;7.60;99.90;;;;;;5033231;28;20173;-69
2020/12/12 10:59:20;;;;;;;0.30;0.30;;;7.60;99.90;;;;;;5033169;28;20176;-69
2020/12/12 11:01:45;;;;;;;0.30;0.30;;;7.60;99.90;;;;;;5032885;28;20432;-70
2020/12/12 11:04:11;;;;;;;0.30;0.30;;;7.70;99.90;;;;;;5032404;28;20219;-71
2020/12/12 11:06:37;;;;;;;0.60;0.60;;;7.90;99.90;;;;;;5033965;28;20253;-71
2020/12/12 11:09:04;;;;;;;0.30;0.20;;;8.10;99.90;;;;;;5033457;28;20199;-69
2020/12/12 11:11:29;;;;;;;0.50;0.50;;;8.20;99.90;;;;;;5032721;28;20228;-70
2020/12/12 11:13:56;;;;;;;0.40;0.40;;;8.30;99.90;;;;;;5040260;28;20263;-69
2020/12/12 11:16:23;;;;;;;1.77;1.67;;;8.40;99.90;;;;;;5053307;28;20631;-69
2020/12/12 11:18:51;;;;;;;0.30;0.30;;;8.50;99.90;;;;;;5053130;28;20256;-69
2020/12/12 11:21:23;;;;;;;0.30;0.30;;;8.60;99.90;;;;;;5052491;28;20245;-69
2020/12/12 11:23:50;;;;;;;0.30;0.30;;;8.60;99.90;;;;;;5052835;28;20579;-68
2020/12/12 11:26:16;;;;;;;0.30;0.30;;;8.70;99.90;;;;;;5053026;28;20705;-69
2020/12/12 11:28:43;;;;;;;0.30;0.30;;;8.80;99.90;;;;;;5052487;28;20595;-71
2020/12/12 11:31:09;;;;;;;0.30;0.30;;;8.80;99.90;;;;;;5052437;28;20636;-69
2020/12/12 11:33:38;;;;;;;0.40;0.40;;;8.80;99.90;;;;;;5054558;28;20223;-69
2020/12/12 11:36:26;;;;;;;0.30;0.30;;;8.90;99.90;;;;;;5057353;28;20161;-69
2020/12/12 11:46:49;;;;;;;0.47;0.47;;;8.70;99.90;;;;;;5036770;28;20197;-71
2020/12/12 11:49:15;;;;;;;0.50;0.50;;;8.70;99.90;;;;;;5036769;28;20178;-69
2020/12/12 11:51:41;;;;;;;0.35;0.35;;;8.70;99.90;;;;;;5035976;28;20182;-69
2020/12/12 11:54:07;;;;;;;0.40;0.40;;;8.70;99.90;;;;;;5045177;28;20250;-70
2020/12/12 11:56:33;;;;;;;0.30;0.30;;;8.60;99.90;;;;;;5056608;28;20173;-69
2020/12/12 11:58:59;;;;;;;0.30;0.30;;;8.60;99.90;;;;;;5056433;28;20224;-70
2020/12/12 12:01:26;;;;;;;0.30;0.20;;;8.60;99.90;;;;;;5055855;28;20430;-70
2020/12/12 12:03:53;;;;;;;0.40;0.40;;;8.60;99.90;;;;;;5056174;28;20177;-70
2020/12/12 12:06:19;;;;;;;0.75;0.75;;;8.60;99.90;;;;;;5056433;28;20173;-70
2020/12/12 12:13:44;;;;;;;0.40;0.40;;;8.80;99.90;;;;;;5051064;28;20608;-69
2020/12/12 12:16:16;;;;;;;0.30;0.30;;;8.80;99.90;;;;;;5034843;28;20312;-69
2020/12/12 12:18:41;;;;;;;0.30;0.28;;;8.80;99.90;;;;;;5036282;28;20169;-69
2020/12/12 12:21:07;;;;;;;0.30;0.30;;;8.80;99.90;;;;;;5035741;28;20199;-69
2020/12/12 12:23:34;;;;;;;0.30;0.30;;;8.90;99.90;;;;;;5036167;28;20171;-70
2020/12/12 12:26:00;;;;;;;0.30;0.20;;;8.80;99.90;;;;;;5036096;28;20706;-69
2020/12/12 12:28:25;;;;;;;0.30;0.30;;;8.80;99.90;;;;;;5035708;28;20201;-70
2020/12/12 12:30:51;;;;;;;0.83;0.80;;;8.80;99.90;;;;;;5035373;28;20201;-70
2020/12/12 12:33:20;;;;;;;0.40;0.40;;;8.80;99.90;;;;;;5035969;28;20220;-71
2020/12/12 12:35:46;;;;;;;0.57;0.57;;;8.80;99.90;;;;;;5034517;28;20186;-70
2020/12/12 12:38:12;;;;;;;1.13;1.13;;;8.80;99.90;;;;;;5034539;28;20659;-69
2020/12/12 12:40:40;;;;;;;2.30;2.20;;;8.80;99.90;;;;;;5055268;28;20909;-70
2020/12/12 12:43:05;;;;;;;0.40;0.40;;;8.80;99.90;;;;;;5039756;28;20199;-69
2020/12/12 12:45:31;;;;;;;0.30;0.30;;;8.70;99.90;;;;;;5036791;28;20245;-67
2020/12/12 12:47:57;;;;;;;0.80;0.73;;;8.70;99.90;;;;;;5035741;28;20170;-67
2020/12/12 12:50:33;;;;;;;0.40;0.40;;;8.70;99.90;;;;;;5035316;28;20166;-69
2020/12/12 12:53:00;;;;;;;0.30;0.30;;;8.60;99.90;;;;;;5036131;28;20746;-68
2020/12/12 12:55:26;;;;;;;0.30;0.30;;;8.60;99.90;;;;;;5035220;28;20198;-69
2020/12/12 12:57:52;;;;;;;0.30;0.30;;;8.60;99.90;;;;;;5041350;28;20180;-68
2020/12/12 13:00:18;;;;;;;0.40;0.40;;;8.60;99.90;;;;;;5034853;28;20216;-66
2020/12/12 13:02:44;;;;;;;0.30;0.20;;;8.60;99.90;;;;;;5034005;28;20220;-65
2020/12/12 13:05:10;;;;;;;0.30;0.30;;;8.60;99.90;;;;;;5035535;28;20714;-66
2020/12/12 13:07:35;;;;;;;0.30;0.30;;;8.50;99.90;;;;;;5035167;28;20173;-65
2020/12/12 13:10:01;;;;;;;0.30;0.30;;;8.50;99.90;;;;;;5034890;28;20178;-67
2020/12/12 13:12:27;;;;;;;0.77;0.77;;;8.50;99.90;;;;;;5033756;28;20251;-65
2020/12/12 13:14:52;;;;;;;2.10;0.77;;;8.40;99.90;;;;;;5035773;28;20201;-65